createdAt,value
2019-02-10T00:03:33.177Z,7.60
2019-02-10T00:08:28.589Z,7.50
2019-02-10T00:13:34.790Z,7.40
2019-02-10T00:18:29.386Z,7.30
2019-02-10T00:23:26.004Z,7.20
2019-02-10T00:28:20.754Z,7.10
2019-02-10T00:33:16.704Z,6.90
2019-02-10T00:38:10.559Z,6.80
2019-02-10T00:43:06.415Z,6.70
2019-02-10T00:48:00.418Z,6.50
2019-02-10T00:52:54.685Z,6.40
2019-02-10T00:57:48.779Z,6.30
2019-02-10T01:02:44.629Z,6.20
2019-02-10T01:07:40.782Z,6.20
2019-02-10T01:12:35.418Z,6.20
2019-02-10T01:17:32.938Z,6.30
2019-02-10T01:22:28.079Z,6.20
2019-02-10T01:27:27.143Z,6.10
2019-02-10T01:32:21.696Z,6.10
2019-02-10T01:37:17.428Z,6.10
2019-02-10T01:42:15.414Z,6.10
2019-02-10T01:47:11.935Z,6.00
2019-02-10T01:52:06.473Z,5.90
2019-02-10T01:57:01.438Z,5.80
2019-02-10T02:01:55.385Z,5.70
2019-02-10T02:06:57.674Z,5.60
2019-02-10T02:11:48.345Z,5.70
2019-02-10T02:16:42.285Z,6.00
2019-02-10T02:21:36.260Z,6.30
2019-02-10T02:26:30.665Z,6.50
2019-02-10T02:31:26.450Z,6.70
2019-02-10T02:36:22.853Z,6.80
2019-02-10T02:41:17.042Z,6.80
2019-02-10T02:46:11.242Z,6.80
2019-02-10T02:51:08.393Z,6.70
2019-02-10T02:56:04.139Z,6.50
2019-02-10T03:00:59.430Z,6.40
2019-02-10T03:05:55.371Z,6.50
2019-02-10T03:10:49.449Z,6.70
2019-02-10T03:15:43.794Z,6.60
2019-02-10T03:20:37.890Z,6.40
2019-02-10T03:25:31.872Z,6.40
2019-02-10T03:30:25.985Z,6.30
2019-02-10T03:35:20.051Z,6.10
2019-02-10T03:40:14.516Z,5.90
2019-02-10T03:45:11.635Z,5.70
2019-02-10T03:50:09.903Z,5.60
2019-02-10T03:55:05.620Z,5.50
2019-02-10T04:00:00.740Z,5.50
2019-02-10T04:04:55.185Z,5.50
2019-02-10T04:09:50.477Z,5.40
2019-02-10T04:14:44.372Z,5.40
2019-02-10T04:19:40.892Z,5.30
2019-02-10T04:24:38.031Z,5.40
2019-02-10T04:29:36.826Z,5.30
2019-02-10T04:34:30.794Z,5.20
2019-02-10T04:39:29.116Z,5.00
2019-02-10T04:44:24.326Z,5.00
2019-02-10T04:49:18.319Z,5.10
2019-02-10T04:54:12.619Z,5.40
2019-02-10T04:59:07.841Z,5.60
2019-02-10T05:04:02.002Z,5.80
2019-02-10T05:08:59.612Z,6.00
2019-02-10T05:13:53.916Z,6.10
2019-02-10T05:18:49.003Z,6.20
2019-02-10T05:23:44.058Z,6.20
2019-02-10T05:28:42.443Z,6.40
2019-02-10T05:33:38.275Z,6.50
2019-02-10T05:38:32.239Z,6.70
2019-02-10T05:43:27.386Z,6.80
2019-02-10T05:48:21.879Z,6.80
2019-02-10T05:53:16.161Z,6.80
2019-02-10T05:58:10.260Z,6.70
2019-02-10T06:03:04.273Z,6.70
2019-02-10T06:07:58.175Z,6.70
2019-02-10T06:12:52.549Z,6.80
2019-02-10T06:17:48.385Z,6.80
2019-02-10T06:22:42.338Z,6.70
2019-02-10T06:27:38.032Z,6.70
2019-02-10T06:32:36.514Z,6.70
2019-02-10T06:37:30.722Z,6.80
2019-02-10T06:42:25.701Z,6.80
2019-02-10T06:47:20.653Z,6.90
2019-02-10T06:52:14.834Z,6.90
2019-02-10T06:57:09.559Z,6.90
2019-02-10T07:02:05.462Z,7.00
2019-02-10T07:07:00.018Z,7.00
2019-02-10T07:11:54.185Z,7.00
2019-02-10T07:16:57.174Z,7.00
2019-02-10T07:21:51.610Z,7.10
2019-02-10T07:26:59.889Z,7.10
2019-02-10T07:31:59.932Z,7.30
2019-02-10T07:37:03.191Z,7.30
2019-02-10T07:42:17.975Z,7.50
2019-02-10T07:47:33.041Z,7.70
2019-02-10T07:52:30.004Z,7.80
2019-02-10T07:57:48.064Z,7.80
2019-02-10T08:02:57.212Z,7.80
2019-02-10T08:08:08.739Z,7.90
2019-02-10T08:13:26.589Z,8.10
2019-02-10T08:18:58.002Z,8.20
2019-02-10T08:24:08.967Z,8.30
2019-02-10T08:29:29.167Z,8.40
2019-02-10T08:34:37.364Z,8.40
2019-02-10T08:39:57.942Z,8.50
2019-02-10T08:45:19.406Z,8.50
2019-02-10T08:50:37.503Z,8.60
2019-02-10T08:55:29.958Z,8.60
2019-02-10T09:00:29.960Z,8.70
2019-02-10T09:05:24.030Z,8.80
2019-02-10T09:10:18.005Z,8.90
2019-02-10T09:15:15.818Z,9.00
2019-02-10T09:20:17.330Z,9.20
2019-02-10T09:25:15.683Z,9.20
2019-02-10T09:30:12.708Z,9.30
2019-02-10T09:35:11.151Z,9.30
2019-02-10T09:40:12.545Z,9.30
2019-02-10T09:45:11.478Z,9.30
2019-02-10T09:50:17.753Z,9.40
2019-02-10T09:55:15.415Z,9.50
2019-02-10T10:00:10.634Z,9.50
2019-02-10T10:05:08.638Z,9.50
2019-02-10T10:10:05.614Z,9.50
2019-02-10T10:15:03.118Z,9.60
2019-02-10T10:20:22.174Z,9.50
2019-02-10T10:25:20.491Z,9.60
2019-02-10T10:30:25.031Z,9.70
2019-02-10T10:35:27.815Z,9.90
2019-02-10T10:40:31.161Z,10.00
2019-02-10T10:45:39.279Z,10.20
2019-02-10T10:50:36.390Z,10.40
2019-02-10T10:55:32.951Z,10.30
2019-02-10T11:00:40.036Z,10.10
2019-02-10T11:05:35.920Z,10.10
2019-02-10T11:10:31.223Z,9.90
2019-02-10T11:15:27.385Z,9.90
2019-02-10T11:20:31.665Z,9.80
2019-02-10T11:25:30.023Z,9.70
2019-02-10T11:30:26.889Z,9.60
2019-02-10T11:35:20.790Z,9.50
2019-02-10T11:40:25.914Z,9.50
2019-02-10T11:45:38.444Z,9.50
2019-02-10T11:50:23.303Z,9.50
2019-02-10T11:55:17.985Z,9.40
2019-02-10T12:00:22.671Z,9.30
2019-02-10T12:05:17.538Z,9.20
2019-02-10T12:10:17.927Z,9.30
2019-02-10T12:15:20.559Z,9.30
2019-02-10T12:20:21.371Z,9.40
2019-02-10T12:25:20.701Z,9.50
2019-02-10T12:30:29.839Z,9.50
2019-02-10T12:35:25.501Z,9.60
2019-02-10T12:40:20.078Z,9.50
2019-02-10T12:45:14.759Z,9.60
2019-02-10T12:50:13.045Z,9.60
2019-02-10T12:55:08.778Z,9.70
2019-02-10T13:00:08.119Z,9.90
2019-02-10T13:05:05.778Z,10.10
2019-02-10T13:10:07.823Z,10.20
2019-02-10T13:14:57.923Z,10.10
2019-02-10T13:19:58.390Z,10.20
2019-02-10T13:24:51.744Z,10.20
2019-02-10T13:29:47.853Z,10.30
2019-02-10T13:34:43.350Z,10.30
2019-02-10T13:39:38.695Z,10.40
2019-02-10T13:44:36.910Z,10.40
2019-02-10T13:49:32.733Z,10.50
2019-02-10T13:54:29.657Z,10.50
2019-02-10T13:59:33.094Z,10.50
2019-02-10T14:04:27.615Z,10.50
2019-02-10T14:09:22.319Z,10.40
2019-02-10T14:14:28.608Z,10.30
2019-02-10T14:19:29.802Z,10.20
2019-02-10T14:24:25.290Z,10.20
2019-02-10T14:29:27.483Z,10.20
2019-02-10T14:34:29.658Z,10.20
2019-02-10T14:39:25.518Z,10.30
2019-02-10T14:44:20.641Z,10.40
2019-02-10T14:49:21.854Z,10.40
2019-02-10T14:54:18.902Z,10.40
2019-02-10T14:59:19.533Z,10.40
2019-02-10T15:04:18.498Z,10.30
2019-02-10T15:09:14.571Z,10.30
2019-02-10T15:14:08.648Z,10.20
2019-02-10T15:19:05.950Z,10.30
2019-02-10T15:24:03.347Z,10.60
2019-02-10T15:29:03.101Z,10.90
2019-02-10T15:34:08.732Z,11.20
2019-02-10T15:39:03.937Z,11.50
2019-02-10T15:44:06.388Z,11.60
2019-02-10T15:49:08.963Z,11.70
2019-02-10T15:54:15.383Z,11.70
2019-02-10T15:59:10.790Z,11.80
2019-02-10T16:04:10.817Z,11.80
2019-02-10T16:09:12.208Z,11.80
2019-02-10T16:14:06.383Z,11.80
2019-02-10T16:19:00.373Z,11.80
2019-02-10T16:23:59.603Z,11.80
2019-02-10T16:28:57.229Z,11.80
2019-02-10T16:34:02.571Z,11.80
2019-02-10T16:39:01.904Z,11.80
2019-02-10T16:43:59.979Z,11.80
2019-02-10T16:48:58.423Z,11.80
2019-02-10T16:53:54.260Z,11.80
2019-02-10T16:58:54.397Z,11.70
2019-02-10T17:03:53.831Z,11.80
2019-02-10T17:08:52.528Z,11.70
2019-02-10T17:13:49.157Z,11.70
2019-02-10T17:18:45.023Z,11.70
2019-02-10T17:23:44.156Z,11.70
2019-02-10T17:28:55.869Z,11.70
2019-02-10T17:33:53.534Z,11.80
2019-02-10T17:38:52.490Z,11.80
2019-02-10T17:43:54.143Z,11.80
2019-02-10T17:49:08.768Z,11.80
2019-02-10T17:54:06.526Z,11.80
2019-02-10T17:59:06.734Z,11.90
2019-02-10T18:04:04.073Z,11.90
2019-02-10T18:09:11.898Z,11.90
2019-02-10T18:14:09.192Z,11.90
2019-02-10T18:19:09.975Z,11.90
2019-02-10T18:24:07.900Z,11.80
2019-02-10T18:29:05.661Z,11.80
2019-02-10T18:34:19.514Z,11.70
2019-02-10T18:39:19.143Z,11.60
2019-02-10T18:44:31.864Z,11.50
2019-02-10T18:49:38.671Z,11.40
2019-02-10T18:54:54.133Z,11.30
2019-02-10T18:59:53.686Z,11.20
2019-02-10T19:04:58.776Z,11.10
2019-02-10T19:09:57.426Z,11.10
2019-02-10T19:15:27.520Z,11.00
2019-02-10T19:26:26.530Z,11.00
2019-02-10T19:31:26.516Z,11.00
2019-02-10T19:36:34.661Z,10.90
2019-02-10T19:41:56.026Z,10.90
2019-02-10T19:47:01.676Z,10.80
2019-02-10T19:52:14.392Z,10.80
2019-02-10T19:57:09.804Z,10.80
2019-02-10T20:02:05.381Z,10.80
2019-02-10T20:07:19.465Z,10.90
2019-02-10T20:12:15.066Z,10.90
2019-02-10T20:17:15.750Z,10.90
2019-02-10T20:22:18.505Z,10.90
2019-02-10T20:27:22.995Z,10.80
2019-02-10T20:32:20.399Z,10.80
2019-02-10T20:37:17.614Z,10.60
2019-02-10T20:42:16.511Z,10.50
2019-02-10T20:47:21.574Z,10.40
2019-02-10T20:52:34.405Z,10.30
2019-02-10T20:57:32.046Z,10.20
2019-02-10T21:02:30.955Z,10.20
2019-02-10T21:07:41.634Z,10.20
2019-02-10T21:12:49.662Z,10.20
2019-02-10T21:17:46.100Z,10.20
2019-02-10T21:22:56.571Z,10.10
2019-02-10T21:27:54.589Z,10.10
2019-02-10T21:32:53.141Z,10.00
2019-02-10T21:37:53.854Z,10.00
2019-02-10T21:42:49.667Z,10.00
2019-02-10T21:47:47.733Z,9.90
2019-02-10T21:52:41.390Z,9.90
2019-02-10T21:57:36.542Z,9.80
2019-02-10T22:02:30.636Z,9.60
2019-02-10T22:07:24.639Z,9.50
2019-02-10T22:12:18.929Z,9.40
2019-02-10T22:17:13.228Z,9.30
2019-02-10T22:22:07.646Z,9.30
2019-02-10T22:27:06.803Z,9.40
2019-02-10T22:32:03.504Z,9.50
2019-02-10T22:36:57.696Z,9.50
2019-02-10T22:41:55.813Z,9.60
2019-02-10T22:46:50.729Z,9.60
2019-02-10T22:51:48.174Z,9.50
2019-02-10T22:56:48.772Z,9.50
2019-02-10T23:01:50.293Z,9.40
2019-02-10T23:06:50.094Z,9.30
2019-02-10T23:11:47.388Z,9.30
2019-02-10T23:16:45.761Z,9.10
2019-02-10T23:21:42.615Z,9.00
2019-02-10T23:26:36.611Z,8.90
2019-02-10T23:31:33.377Z,8.90
2019-02-10T23:36:39.406Z,8.90
2019-02-10T23:41:34.659Z,8.80
2019-02-10T23:46:30.732Z,8.70
2019-02-10T23:51:31.919Z,8.60
2019-02-10T23:56:26.058Z,8.60
